sensor_id;sensor_type;location;lat;lon;timestamp;P1;durP1;ratioP1;P2;durP2;ratioP2
74995;SDS011;63545;51.690;5.202;2024-03-29T00:00:48;3.77;;;1.03;;
74995;SDS011;63545;51.690;5.202;2024-03-29T00:03:13;6.10;;;1.20;;
74995;SDS011;63545;51.690;5.202;2024-03-29T00:05:38;7.53;;;1.50;;
74995;SDS011;63545;51.690;5.202;2024-03-29T00:08:04;5.93;;;1.20;;
74995;SDS011;63545;51.690;5.202;2024-03-29T00:10:30;4.50;;;1.00;;
74995;SDS011;63545;51.690;5.202;2024-03-29T00:12:55;3.42;;;0.95;;
74995;SDS011;63545;51.690;5.202;2024-03-29T00:15:20;4.77;;;1.10;;
74995;SDS011;63545;51.690;5.202;2024-03-29T00:17:46;4.33;;;1.10;;
74995;SDS011;63545;51.690;5.202;2024-03-29T00:20:11;4.80;;;1.27;;
74995;SDS011;63545;51.690;5.202;2024-03-29T00:22:37;6.70;;;1.13;;
74995;SDS011;63545;51.690;5.202;2024-03-29T00:25:02;3.97;;;0.80;;
74995;SDS011;63545;51.690;5.202;2024-03-29T00:27:28;7.23;;;1.10;;
74995;SDS011;63545;51.690;5.202;2024-03-29T00:29:53;8.07;;;1.13;;
74995;SDS011;63545;51.690;5.202;2024-03-29T00:32:19;5.70;;;1.17;;
74995;SDS011;63545;51.690;5.202;2024-03-29T00:34:45;4.20;;;1.15;;
74995;SDS011;63545;51.690;5.202;2024-03-29T00:37:10;5.20;;;1.37;;
74995;SDS011;63545;51.690;5.202;2024-03-29T00:39:36;6.60;;;1.10;;
74995;SDS011;63545;51.690;5.202;2024-03-29T00:42:01;5.53;;;1.10;;
74995;SDS011;63545;51.690;5.202;2024-03-29T00:44:27;4.43;;;1.27;;
74995;SDS011;63545;51.690;5.202;2024-03-29T00:46:52;5.70;;;1.00;;
74995;SDS011;63545;51.690;5.202;2024-03-29T00:49:18;4.18;;;0.95;;
74995;SDS011;63545;51.690;5.202;2024-03-29T00:51:44;4.50;;;1.00;;
74995;SDS011;63545;51.690;5.202;2024-03-29T00:54:09;5.10;;;1.13;;
74995;SDS011;63545;51.690;5.202;2024-03-29T00:56:34;5.57;;;1.03;;
74995;SDS011;63545;51.690;5.202;2024-03-29T00:59:00;4.00;;;1.40;;
74995;SDS011;63545;51.690;5.202;2024-03-29T01:01:26;6.03;;;1.40;;
74995;SDS011;63545;51.690;5.202;2024-03-29T01:03:51;5.13;;;1.00;;
74995;SDS011;63545;51.690;5.202;2024-03-29T01:06:17;5.63;;;1.00;;
74995;SDS011;63545;51.690;5.202;2024-03-29T01:08:42;4.40;;;0.90;;
74995;SDS011;63545;51.690;5.202;2024-03-29T01:11:07;4.67;;;1.20;;
74995;SDS011;63545;51.690;5.202;2024-03-29T01:13:33;5.95;;;1.10;;
74995;SDS011;63545;51.690;5.202;2024-03-29T01:15:58;6.93;;;1.17;;
74995;SDS011;63545;51.690;5.202;2024-03-29T01:18:24;2.70;;;1.00;;
74995;SDS011;63545;51.690;5.202;2024-03-29T01:20:49;5.90;;;1.10;;
74995;SDS011;63545;51.690;5.202;2024-03-29T01:23:15;6.43;;;1.37;;
74995;SDS011;63545;51.690;5.202;2024-03-29T01:25:40;7.80;;;1.30;;
74995;SDS011;63545;51.690;5.202;2024-03-29T01:28:06;2.67;;;0.80;;
74995;SDS011;63545;51.690;5.202;2024-03-29T01:30:31;4.17;;;0.97;;
74995;SDS011;63545;51.690;5.202;2024-03-29T01:32:57;4.13;;;0.93;;
74995;SDS011;63545;51.690;5.202;2024-03-29T01:35:22;3.00;;;0.90;;
74995;SDS011;63545;51.690;5.202;2024-03-29T01:37:48;2.80;;;0.90;;
74995;SDS011;63545;51.690;5.202;2024-03-29T01:40:13;4.07;;;1.00;;
74995;SDS011;63545;51.690;5.202;2024-03-29T01:42:38;2.67;;;1.03;;
74995;SDS011;63545;51.690;5.202;2024-03-29T01:45:04;4.10;;;1.13;;
74995;SDS011;63545;51.690;5.202;2024-03-29T01:47:30;4.77;;;0.83;;
74995;SDS011;63545;51.690;5.202;2024-03-29T01:49:55;6.07;;;1.13;;
74995;SDS011;63545;51.690;5.202;2024-03-29T01:52:21;6.03;;;1.00;;
74995;SDS011;63545;51.690;5.202;2024-03-29T01:54:46;5.63;;;1.07;;
74995;SDS011;63545;51.690;5.202;2024-03-29T01:57:12;6.27;;;0.80;;
74995;SDS011;63545;51.690;5.202;2024-03-29T01:59:38;8.70;;;0.93;;
74995;SDS011;63545;51.690;5.202;2024-03-29T02:02:05;5.30;;;1.00;;
74995;SDS011;63545;51.690;5.202;2024-03-29T02:04:30;4.77;;;1.03;;
74995;SDS011;63545;51.690;5.202;2024-03-29T02:06:56;3.83;;;0.90;;
74995;SDS011;63545;51.690;5.202;2024-03-29T02:09:21;5.73;;;0.90;;
74995;SDS011;63545;51.690;5.202;2024-03-29T02:11:46;8.73;;;1.10;;
74995;SDS011;63545;51.690;5.202;2024-03-29T02:14:12;5.60;;;1.23;;
74995;SDS011;63545;51.690;5.202;2024-03-29T02:16:37;3.28;;;0.77;;
74995;SDS011;63545;51.690;5.202;2024-03-29T02:19:03;3.17;;;1.00;;
74995;SDS011;63545;51.690;5.202;2024-03-29T02:21:28;8.80;;;1.65;;
74995;SDS011;63545;51.690;5.202;2024-03-29T02:24:05;2.63;;;0.83;;
74995;SDS011;63545;51.690;5.202;2024-03-29T02:26:31;7.32;;;1.05;;
74995;SDS011;63545;51.690;5.202;2024-03-29T02:29:00;5.93;;;1.10;;
74995;SDS011;63545;51.690;5.202;2024-03-29T02:31:26;3.93;;;0.90;;
74995;SDS011;63545;51.690;5.202;2024-03-29T02:33:51;5.17;;;1.20;;
74995;SDS011;63545;51.690;5.202;2024-03-29T02:36:16;4.77;;;0.97;;
74995;SDS011;63545;51.690;5.202;2024-03-29T02:38:42;6.32;;;0.95;;
74995;SDS011;63545;51.690;5.202;2024-03-29T02:41:07;6.20;;;0.90;;
74995;SDS011;63545;51.690;5.202;2024-03-29T02:43:32;4.10;;;0.97;;
74995;SDS011;63545;51.690;5.202;2024-03-29T02:45:58;4.47;;;1.10;;
74995;SDS011;63545;51.690;5.202;2024-03-29T02:48:23;3.13;;;1.03;;
74995;SDS011;63545;51.690;5.202;2024-03-29T02:50:48;2.40;;;0.70;;
74995;SDS011;63545;51.690;5.202;2024-03-29T02:53:14;4.90;;;1.10;;
74995;SDS011;63545;51.690;5.202;2024-03-29T02:55:40;3.20;;;0.90;;
74995;SDS011;63545;51.690;5.202;2024-03-29T02:58:06;3.92;;;1.00;;
74995;SDS011;63545;51.690;5.202;2024-03-29T03:00:31;6.73;;;1.13;;
74995;SDS011;63545;51.690;5.202;2024-03-29T03:02:57;3.37;;;0.90;;
74995;SDS011;63545;51.690;5.202;2024-03-29T03:05:22;4.87;;;1.00;;
74995;SDS011;63545;51.690;5.202;2024-03-29T03:07:47;3.75;;;1.02;;
74995;SDS011;63545;51.690;5.202;2024-03-29T03:10:31;3.63;;;1.00;;
74995;SDS011;63545;51.690;5.202;2024-03-29T03:13:15;4.18;;;0.90;;
74995;SDS011;63545;51.690;5.202;2024-03-29T03:15:41;2.17;;;0.87;;
74995;SDS011;63545;51.690;5.202;2024-03-29T03:18:06;3.57;;;1.00;;
74995;SDS011;63545;51.690;5.202;2024-03-29T03:20:31;3.70;;;0.90;;
74995;SDS011;63545;51.690;5.202;2024-03-29T03:22:57;3.93;;;1.00;;
74995;SDS011;63545;51.690;5.202;2024-03-29T03:25:24;2.17;;;0.80;;
74995;SDS011;63545;51.690;5.202;2024-03-29T03:27:51;4.57;;;0.93;;
74995;SDS011;63545;51.690;5.202;2024-03-29T03:30:16;9.50;;;0.80;;
74995;SDS011;63545;51.690;5.202;2024-03-29T03:32:41;4.00;;;1.27;;
74995;SDS011;63545;51.690;5.202;2024-03-29T03:35:07;2.93;;;0.80;;
74995;SDS011;63545;51.690;5.202;2024-03-29T03:37:33;2.43;;;1.00;;
74995;SDS011;63545;51.690;5.202;2024-03-29T03:39:58;5.17;;;0.80;;
74995;SDS011;63545;51.690;5.202;2024-03-29T03:42:23;3.05;;;0.90;;
74995;SDS011;63545;51.690;5.202;2024-03-29T03:44:48;2.17;;;0.80;;
74995;SDS011;63545;51.690;5.202;2024-03-29T03:47:14;3.23;;;0.90;;
74995;SDS011;63545;51.690;5.202;2024-03-29T03:49:40;3.40;;;0.90;;
74995;SDS011;63545;51.690;5.202;2024-03-29T03:52:05;3.90;;;1.00;;
74995;SDS011;63545;51.690;5.202;2024-03-29T03:54:30;2.58;;;0.57;;
74995;SDS011;63545;51.690;5.202;2024-03-29T03:56:56;2.10;;;0.63;;
74995;SDS011;63545;51.690;5.202;2024-03-29T03:59:21;4.93;;;0.90;;
74995;SDS011;63545;51.690;5.202;2024-03-29T04:01:46;5.10;;;0.80;;
74995;SDS011;63545;51.690;5.202;2024-03-29T04:04:12;1.77;;;0.60;;
74995;SDS011;63545;51.690;5.202;2024-03-29T04:06:37;2.70;;;0.80;;
74995;SDS011;63545;51.690;5.202;2024-03-29T04:09:02;5.20;;;1.13;;
74995;SDS011;63545;51.690;5.202;2024-03-29T04:11:28;2.13;;;1.00;;
74995;SDS011;63545;51.690;5.202;2024-03-29T04:13:54;4.30;;;0.83;;
74995;SDS011;63545;51.690;5.202;2024-03-29T04:16:19;2.80;;;0.70;;
74995;SDS011;63545;51.690;5.202;2024-03-29T04:18:45;2.77;;;0.90;;
74995;SDS011;63545;51.690;5.202;2024-03-29T04:21:10;2.77;;;0.90;;
74995;SDS011;63545;51.690;5.202;2024-03-29T04:23:36;3.17;;;1.00;;
74995;SDS011;63545;51.690;5.202;2024-03-29T04:26:02;2.75;;;0.80;;
74995;SDS011;63545;51.690;5.202;2024-03-29T04:28:27;2.97;;;0.90;;
74995;SDS011;63545;51.690;5.202;2024-03-29T04:30:53;3.53;;;0.90;;
74995;SDS011;63545;51.690;5.202;2024-03-29T04:33:22;1.85;;;0.82;;
74995;SDS011;63545;51.690;5.202;2024-03-29T04:35:52;5.82;;;0.90;;
74995;SDS011;63545;51.690;5.202;2024-03-29T04:38:22;7.88;;;0.80;;
74995;SDS011;63545;51.690;5.202;2024-03-29T04:40:48;1.57;;;0.77;;
74995;SDS011;63545;51.690;5.202;2024-03-29T04:43:15;3.10;;;0.70;;
74995;SDS011;63545;51.690;5.202;2024-03-29T04:45:40;2.70;;;0.90;;
74995;SDS011;63545;51.690;5.202;2024-03-29T04:48:06;4.67;;;1.10;;
74995;SDS011;63545;51.690;5.202;2024-03-29T04:50:31;3.05;;;0.90;;
74995;SDS011;63545;51.690;5.202;2024-03-29T04:52:56;1.87;;;0.77;;
74995;SDS011;63545;51.690;5.202;2024-03-29T04:55:22;1.00;;;0.70;;
74995;SDS011;63545;51.690;5.202;2024-03-29T04:57:47;4.73;;;1.00;;
74995;SDS011;63545;51.690;5.202;2024-03-29T05:00:12;4.97;;;0.93;;
74995;SDS011;63545;51.690;5.202;2024-03-29T05:02:38;5.47;;;1.00;;
74995;SDS011;63545;51.690;5.202;2024-03-29T05:05:03;2.97;;;0.90;;
74995;SDS011;63545;51.690;5.202;2024-03-29T05:07:29;3.03;;;0.80;;
74995;SDS011;63545;51.690;5.202;2024-03-29T05:09:55;4.40;;;0.90;;
74995;SDS011;63545;51.690;5.202;2024-03-29T05:12:20;4.80;;;0.80;;
74995;SDS011;63545;51.690;5.202;2024-03-29T05:14:46;3.25;;;0.80;;
74995;SDS011;63545;51.690;5.202;2024-03-29T05:17:13;4.93;;;1.13;;
74995;SDS011;63545;51.690;5.202;2024-03-29T05:19:38;2.57;;;0.97;;
74995;SDS011;63545;51.690;5.202;2024-03-29T05:22:04;1.88;;;0.82;;
74995;SDS011;63545;51.690;5.202;2024-03-29T05:24:29;2.07;;;0.90;;
74995;SDS011;63545;51.690;5.202;2024-03-29T05:26:54;2.93;;;1.00;;
74995;SDS011;63545;51.690;5.202;2024-03-29T05:29:20;3.53;;;1.00;;
74995;SDS011;63545;51.690;5.202;2024-03-29T05:31:45;4.80;;;1.00;;
74995;SDS011;63545;51.690;5.202;2024-03-29T05:34:10;6.00;;;1.13;;
74995;SDS011;63545;51.690;5.202;2024-03-29T05:36:36;3.93;;;1.10;;
74995;SDS011;63545;51.690;5.202;2024-03-29T05:39:01;3.00;;;0.90;;
74995;SDS011;63545;51.690;5.202;2024-03-29T05:41:28;1.60;;;0.80;;
74995;SDS011;63545;51.690;5.202;2024-03-29T05:43:55;2.45;;;0.90;;
74995;SDS011;63545;51.690;5.202;2024-03-29T05:46:20;3.07;;;0.93;;
74995;SDS011;63545;51.690;5.202;2024-03-29T05:48:46;4.07;;;1.00;;
74995;SDS011;63545;51.690;5.202;2024-03-29T05:51:11;2.83;;;0.97;;
74995;SDS011;63545;51.690;5.202;2024-03-29T05:53:37;3.67;;;1.00;;
74995;SDS011;63545;51.690;5.202;2024-03-29T05:56:02;3.43;;;0.93;;
74995;SDS011;63545;51.690;5.202;2024-03-29T05:58:27;4.77;;;0.97;;
74995;SDS011;63545;51.690;5.202;2024-03-29T06:00:53;3.70;;;0.93;;
74995;SDS011;63545;51.690;5.202;2024-03-29T06:03:18;2.55;;;1.00;;
74995;SDS011;63545;51.690;5.202;2024-03-29T06:05:43;3.67;;;1.20;;
74995;SDS011;63545;51.690;5.202;2024-03-29T06:08:09;2.30;;;1.00;;
74995;SDS011;63545;51.690;5.202;2024-03-29T06:10:34;3.03;;;1.00;;
74995;SDS011;63545;51.690;5.202;2024-03-29T06:12:59;5.63;;;1.00;;
74995;SDS011;63545;51.690;5.202;2024-03-29T06:15:32;3.85;;;1.02;;
74995;SDS011;63545;51.690;5.202;2024-03-29T06:18:16;4.72;;;1.30;;
74995;SDS011;63545;51.690;5.202;2024-03-29T06:20:43;3.57;;;0.90;;
74995;SDS011;63545;51.690;5.202;2024-03-29T06:23:09;3.00;;;1.00;;
74995;SDS011;63545;51.690;5.202;2024-03-29T06:25:34;3.67;;;1.00;;
74995;SDS011;63545;51.690;5.202;2024-03-29T06:27:59;2.80;;;0.90;;
74995;SDS011;63545;51.690;5.202;2024-03-29T06:30:25;2.42;;;0.95;;
74995;SDS011;63545;51.690;5.202;2024-03-29T06:32:50;2.57;;;1.03;;
74995;SDS011;63545;51.690;5.202;2024-03-29T06:35:16;2.87;;;0.80;;
74995;SDS011;63545;51.690;5.202;2024-03-29T06:37:41;2.10;;;1.20;;
74995;SDS011;63545;51.690;5.202;2024-03-29T06:40:07;3.15;;;1.25;;
74995;SDS011;63545;51.690;5.202;2024-03-29T06:42:33;2.97;;;1.58;;
74995;SDS011;63545;51.690;5.202;2024-03-29T06:44:59;3.23;;;1.00;;
74995;SDS011;63545;51.690;5.202;2024-03-29T06:47:25;2.22;;;1.10;;
74995;SDS011;63545;51.690;5.202;2024-03-29T06:49:52;3.23;;;0.90;;
74995;SDS011;63545;51.690;5.202;2024-03-29T06:52:18;2.03;;;0.90;;
74995;SDS011;63545;51.690;5.202;2024-03-29T06:54:43;2.80;;;1.10;;
74995;SDS011;63545;51.690;5.202;2024-03-29T06:57:08;3.93;;;1.10;;
74995;SDS011;63545;51.690;5.202;2024-03-29T06:59:35;2.55;;;1.10;;
74995;SDS011;63545;51.690;5.202;2024-03-29T07:02:00;2.60;;;1.43;;
74995;SDS011;63545;51.690;5.202;2024-03-29T07:04:26;3.05;;;1.40;;
74995;SDS011;63545;51.690;5.202;2024-03-29T07:06:53;5.35;;;1.20;;
74995;SDS011;63545;51.690;5.202;2024-03-29T07:09:22;4.10;;;1.10;;
74995;SDS011;63545;51.690;5.202;2024-03-29T07:11:48;3.63;;;1.10;;
74995;SDS011;63545;51.690;5.202;2024-03-29T07:14:14;3.28;;;1.00;;
74995;SDS011;63545;51.690;5.202;2024-03-29T07:16:40;1.73;;;1.00;;
74995;SDS011;63545;51.690;5.202;2024-03-29T07:19:06;5.38;;;1.40;;
74995;SDS011;63545;51.690;5.202;2024-03-29T07:21:31;6.60;;;1.33;;
74995;SDS011;63545;51.690;5.202;2024-03-29T07:23:57;7.20;;;1.30;;
74995;SDS011;63545;51.690;5.202;2024-03-29T07:26:22;4.00;;;1.70;;
74995;SDS011;63545;51.690;5.202;2024-03-29T07:28:47;4.15;;;1.33;;
74995;SDS011;63545;51.690;5.202;2024-03-29T07:31:13;2.10;;;1.13;;
74995;SDS011;63545;51.690;5.202;2024-03-29T07:33:38;2.13;;;1.07;;
74995;SDS011;63545;51.690;5.202;2024-03-29T07:36:04;2.10;;;1.00;;
74995;SDS011;63545;51.690;5.202;2024-03-29T07:38:30;2.60;;;1.10;;
74995;SDS011;63545;51.690;5.202;2024-03-29T07:40:55;1.73;;;1.30;;
74995;SDS011;63545;51.690;5.202;2024-03-29T07:43:21;3.33;;;1.20;;
74995;SDS011;63545;51.690;5.202;2024-03-29T07:45:47;3.97;;;1.20;;
74995;SDS011;63545;51.690;5.202;2024-03-29T07:48:13;6.63;;;1.63;;
74995;SDS011;63545;51.690;5.202;2024-03-29T07:50:40;3.30;;;1.50;;
74995;SDS011;63545;51.690;5.202;2024-03-29T07:53:06;3.20;;;1.30;;
74995;SDS011;63545;51.690;5.202;2024-03-29T07:55:31;6.43;;;1.40;;
74995;SDS011;63545;51.690;5.202;2024-03-29T07:57:57;4.32;;;1.27;;
74995;SDS011;63545;51.690;5.202;2024-03-29T08:00:23;4.93;;;1.63;;
74995;SDS011;63545;51.690;5.202;2024-03-29T08:02:48;4.90;;;1.30;;
74995;SDS011;63545;51.690;5.202;2024-03-29T08:05:15;2.75;;;1.50;;
74995;SDS011;63545;51.690;5.202;2024-03-29T08:07:40;2.37;;;1.43;;
74995;SDS011;63545;51.690;5.202;2024-03-29T08:10:06;3.40;;;1.27;;
74995;SDS011;63545;51.690;5.202;2024-03-29T08:12:32;2.95;;;1.73;;
74995;SDS011;63545;51.690;5.202;2024-03-29T08:14:58;3.53;;;1.60;;
74995;SDS011;63545;51.690;5.202;2024-03-29T08:17:23;2.38;;;1.42;;
74995;SDS011;63545;51.690;5.202;2024-03-29T08:19:49;7.30;;;1.50;;
74995;SDS011;63545;51.690;5.202;2024-03-29T08:22:14;3.37;;;1.37;;
74995;SDS011;63545;51.690;5.202;2024-03-29T08:24:40;5.87;;;1.50;;
74995;SDS011;63545;51.690;5.202;2024-03-29T08:27:05;2.38;;;1.15;;
74995;SDS011;63545;51.690;5.202;2024-03-29T08:29:30;2.77;;;1.20;;
74995;SDS011;63545;51.690;5.202;2024-03-29T08:31:56;2.63;;;1.57;;
74995;SDS011;63545;51.690;5.202;2024-03-29T08:34:21;7.50;;;1.30;;
74995;SDS011;63545;51.690;5.202;2024-03-29T08:36:47;2.25;;;1.30;;
74995;SDS011;63545;51.690;5.202;2024-03-29T08:39:12;2.30;;;1.30;;
74995;SDS011;63545;51.690;5.202;2024-03-29T08:41:37;2.63;;;1.40;;
74995;SDS011;63545;51.690;5.202;2024-03-29T08:44:03;4.15;;;1.50;;
74995;SDS011;63545;51.690;5.202;2024-03-29T08:46:29;4.73;;;1.43;;
74995;SDS011;63545;51.690;5.202;2024-03-29T08:48:54;2.63;;;1.30;;
74995;SDS011;63545;51.690;5.202;2024-03-29T08:51:20;4.30;;;1.60;;
74995;SDS011;63545;51.690;5.202;2024-03-29T08:53:46;2.42;;;1.45;;
74995;SDS011;63545;51.690;5.202;2024-03-29T08:56:11;2.70;;;1.25;;
74995;SDS011;63545;51.690;5.202;2024-03-29T08:58:37;5.70;;;1.30;;
74995;SDS011;63545;51.690;5.202;2024-03-29T09:01:04;3.43;;;1.10;;
74995;SDS011;63545;51.690;5.202;2024-03-29T09:03:29;1.52;;;1.20;;
74995;SDS011;63545;51.690;5.202;2024-03-29T09:05:55;1.63;;;1.00;;
74995;SDS011;63545;51.690;5.202;2024-03-29T09:08:20;3.00;;;1.40;;
74995;SDS011;63545;51.690;5.202;2024-03-29T09:10:46;2.75;;;1.10;;
74995;SDS011;63545;51.690;5.202;2024-03-29T09:13:11;2.47;;;1.50;;
74995;SDS011;63545;51.690;5.202;2024-03-29T09:15:37;3.40;;;1.70;;
74995;SDS011;63545;51.690;5.202;2024-03-29T09:18:02;3.75;;;1.63;;
74995;SDS011;63545;51.690;5.202;2024-03-29T09:20:38;2.75;;;1.42;;
74995;SDS011;63545;51.690;5.202;2024-03-29T09:23:03;2.47;;;1.70;;
74995;SDS011;63545;51.690;5.202;2024-03-29T09:25:29;4.28;;;1.80;;
74995;SDS011;63545;51.690;5.202;2024-03-29T09:27:55;5.43;;;1.70;;
74995;SDS011;63545;51.690;5.202;2024-03-29T09:30:20;3.73;;;1.80;;
74995;SDS011;63545;51.690;5.202;2024-03-29T09:32:47;2.60;;;1.70;;
74995;SDS011;63545;51.690;5.202;2024-03-29T09:35:15;5.00;;;2.15;;
74995;SDS011;63545;51.690;5.202;2024-03-29T09:37:40;2.30;;;1.57;;
74995;SDS011;63545;51.690;5.202;2024-03-29T09:40:07;8.93;;;1.95;;
74995;SDS011;63545;51.690;5.202;2024-03-29T09:42:36;4.18;;;2.30;;
74995;SDS011;63545;51.690;5.202;2024-03-29T09:45:03;4.35;;;2.15;;
74995;SDS011;63545;51.690;5.202;2024-03-29T09:47:30;4.00;;;1.80;;
74995;SDS011;63545;51.690;5.202;2024-03-29T09:49:56;7.47;;;2.97;;
74995;SDS011;63545;51.690;5.202;2024-03-29T09:52:25;5.32;;;2.10;;
74995;SDS011;63545;51.690;5.202;2024-03-29T09:54:51;3.67;;;2.17;;
74995;SDS011;63545;51.690;5.202;2024-03-29T09:57:16;5.23;;;1.80;;
74995;SDS011;63545;51.690;5.202;2024-03-29T09:59:42;8.10;;;2.40;;
74995;SDS011;63545;51.690;5.202;2024-03-29T10:02:17;3.47;;;1.98;;
74995;SDS011;63545;51.690;5.202;2024-03-29T10:04:45;3.40;;;2.20;;
74995;SDS011;63545;51.690;5.202;2024-03-29T10:07:12;5.13;;;2.08;;
74995;SDS011;63545;51.690;5.202;2024-03-29T10:09:39;4.82;;;2.38;;
74995;SDS011;63545;51.690;5.202;2024-03-29T10:12:04;4.87;;;1.90;;
74995;SDS011;63545;51.690;5.202;2024-03-29T10:14:42;4.22;;;2.33;;
74995;SDS011;63545;51.690;5.202;2024-03-29T10:17:15;5.93;;;1.90;;
74995;SDS011;63545;51.690;5.202;2024-03-29T10:19:42;3.35;;;1.63;;
74995;SDS011;63545;51.690;5.202;2024-03-29T10:22:07;4.47;;;1.77;;
74995;SDS011;63545;51.690;5.202;2024-03-29T10:24:33;5.20;;;1.70;;
74995;SDS011;63545;51.690;5.202;2024-03-29T10:26:58;5.33;;;2.10;;
74995;SDS011;63545;51.690;5.202;2024-03-29T10:29:28;2.90;;;1.58;;
74995;SDS011;63545;51.690;5.202;2024-03-29T10:31:55;3.30;;;1.70;;
74995;SDS011;63545;51.690;5.202;2024-03-29T10:34:20;3.97;;;1.65;;
74995;SDS011;63545;51.690;5.202;2024-03-29T10:36:49;3.90;;;1.63;;
74995;SDS011;63545;51.690;5.202;2024-03-29T10:39:16;6.15;;;2.05;;
74995;SDS011;63545;51.690;5.202;2024-03-29T10:41:42;4.10;;;2.03;;
74995;SDS011;63545;51.690;5.202;2024-03-29T10:44:08;4.95;;;1.80;;
74995;SDS011;63545;51.690;5.202;2024-03-29T10:46:36;3.03;;;1.50;;
74995;SDS011;63545;51.690;5.202;2024-03-29T10:49:03;2.80;;;1.70;;
74995;SDS011;63545;51.690;5.202;2024-03-29T10:51:31;5.23;;;2.93;;
74995;SDS011;63545;51.690;5.202;2024-03-29T10:53:57;3.33;;;1.60;;
74995;SDS011;63545;51.690;5.202;2024-03-29T10:56:24;3.70;;;1.80;;
74995;SDS011;63545;51.690;5.202;2024-03-29T10:58:50;5.65;;;1.48;;
74995;SDS011;63545;51.690;5.202;2024-03-29T11:01:18;3.78;;;1.60;;
74995;SDS011;63545;51.690;5.202;2024-03-29T11:03:44;2.43;;;1.30;;
74995;SDS011;63545;51.690;5.202;2024-03-29T11:06:15;3.60;;;1.20;;
74995;SDS011;63545;51.690;5.202;2024-03-29T11:08:42;2.88;;;1.38;;
74995;SDS011;63545;51.690;5.202;2024-03-29T11:11:12;3.67;;;1.50;;
74995;SDS011;63545;51.690;5.202;2024-03-29T11:16:19;2.00;;;1.42;;
74995;SDS011;63545;51.690;5.202;2024-03-29T11:18:45;2.90;;;1.38;;
74995;SDS011;63545;51.690;5.202;2024-03-29T11:21:12;3.17;;;1.40;;
74995;SDS011;63545;51.690;5.202;2024-03-29T11:23:43;2.22;;;1.35;;
74995;SDS011;63545;51.690;5.202;2024-03-29T11:26:13;2.30;;;1.40;;
74995;SDS011;63545;51.690;5.202;2024-03-29T11:28:39;3.58;;;1.50;;
74995;SDS011;63545;51.690;5.202;2024-03-29T11:31:07;3.10;;;1.55;;
74995;SDS011;63545;51.690;5.202;2024-03-29T11:36:11;2.85;;;1.40;;
74995;SDS011;63545;51.690;5.202;2024-03-29T11:38:42;3.17;;;1.40;;
74995;SDS011;63545;51.690;5.202;2024-03-29T11:41:14;2.95;;;1.50;;
74995;SDS011;63545;51.690;5.202;2024-03-29T11:43:41;2.53;;;1.67;;
74995;SDS011;63545;51.690;5.202;2024-03-29T11:46:09;3.58;;;1.60;;
74995;SDS011;63545;51.690;5.202;2024-03-29T11:48:35;2.47;;;1.60;;
74995;SDS011;63545;51.690;5.202;2024-03-29T11:51:02;1.97;;;1.37;;
74995;SDS011;63545;51.690;5.202;2024-03-29T11:53:28;4.68;;;1.70;;
74995;SDS011;63545;51.690;5.202;2024-03-29T11:55:55;3.53;;;1.77;;
74995;SDS011;63545;51.690;5.202;2024-03-29T11:58:24;2.50;;;1.55;;
74995;SDS011;63545;51.690;5.202;2024-03-29T12:00:50;2.55;;;1.50;;
74995;SDS011;63545;51.690;5.202;2024-03-29T12:03:16;3.40;;;1.53;;
74995;SDS011;63545;51.690;5.202;2024-03-29T12:05:45;3.28;;;1.23;;
74995;SDS011;63545;51.690;5.202;2024-03-29T12:08:12;2.70;;;1.50;;
74995;SDS011;63545;51.690;5.202;2024-03-29T12:10:37;2.87;;;1.40;;
74995;SDS011;63545;51.690;5.202;2024-03-29T12:13:07;2.58;;;1.60;;
74995;SDS011;63545;51.690;5.202;2024-03-29T12:15:33;3.03;;;1.60;;
74995;SDS011;63545;51.690;5.202;2024-03-29T12:18:02;1.45;;;1.10;;
74995;SDS011;63545;51.690;5.202;2024-03-29T12:20:30;2.20;;;1.25;;
74995;SDS011;63545;51.690;5.202;2024-03-29T12:22:55;1.97;;;1.13;;
74995;SDS011;63545;51.690;5.202;2024-03-29T12:25:23;4.72;;;1.30;;
74995;SDS011;63545;51.690;5.202;2024-03-29T12:27:49;2.63;;;1.02;;
74995;SDS011;63545;51.690;5.202;2024-03-29T12:30:14;2.70;;;1.40;;
74995;SDS011;63545;51.690;5.202;2024-03-29T12:32:40;2.08;;;1.10;;
74995;SDS011;63545;51.690;5.202;2024-03-29T12:35:12;3.47;;;1.27;;
74995;SDS011;63545;51.690;5.202;2024-03-29T12:37:47;2.50;;;1.40;;
74995;SDS011;63545;51.690;5.202;2024-03-29T12:40:23;2.83;;;1.00;;
74995;SDS011;63545;51.690;5.202;2024-03-29T12:42:50;2.33;;;1.20;;
74995;SDS011;63545;51.690;5.202;2024-03-29T12:45:16;3.73;;;0.93;;
74995;SDS011;63545;51.690;5.202;2024-03-29T12:47:48;1.20;;;1.00;;
74995;SDS011;63545;51.690;5.202;2024-03-29T12:50:14;1.45;;;0.82;;
74995;SDS011;63545;51.690;5.202;2024-03-29T12:52:44;1.77;;;0.90;;
74995;SDS011;63545;51.690;5.202;2024-03-29T12:55:10;2.17;;;0.90;;
74995;SDS011;63545;51.690;5.202;2024-03-29T12:57:38;1.67;;;0.80;;
74995;SDS011;63545;51.690;5.202;2024-03-29T13:00:07;2.05;;;0.93;;
74995;SDS011;63545;51.690;5.202;2024-03-29T13:02:37;0.95;;;0.80;;
74995;SDS011;63545;51.690;5.202;2024-03-29T13:05:03;1.27;;;0.80;;
74995;SDS011;63545;51.690;5.202;2024-03-29T13:07:29;1.67;;;0.90;;
74995;SDS011;63545;51.690;5.202;2024-03-29T13:09:54;1.15;;;0.80;;
74995;SDS011;63545;51.690;5.202;2024-03-29T13:12:20;1.30;;;0.90;;
74995;SDS011;63545;51.690;5.202;2024-03-29T13:14:46;1.05;;;0.80;;
74995;SDS011;63545;51.690;5.202;2024-03-29T13:17:11;2.80;;;0.90;;
74995;SDS011;63545;51.690;5.202;2024-03-29T13:19:36;2.00;;;0.90;;
74995;SDS011;63545;51.690;5.202;2024-03-29T13:22:02;3.73;;;0.90;;
74995;SDS011;63545;51.690;5.202;2024-03-29T13:24:27;2.47;;;0.70;;
74995;SDS011;63545;51.690;5.202;2024-03-29T13:26:54;1.30;;;0.60;;
74995;SDS011;63545;51.690;5.202;2024-03-29T13:29:19;1.77;;;0.85;;
74995;SDS011;63545;51.690;5.202;2024-03-29T13:31:45;1.40;;;0.77;;
74995;SDS011;63545;51.690;5.202;2024-03-29T13:34:11;0.98;;;0.63;;
74995;SDS011;63545;51.690;5.202;2024-03-29T13:36:39;2.10;;;0.70;;
74995;SDS011;63545;51.690;5.202;2024-03-29T13:39:05;1.93;;;0.77;;
74995;SDS011;63545;51.690;5.202;2024-03-29T13:41:30;1.10;;;0.82;;
74995;SDS011;63545;51.690;5.202;2024-03-29T13:43:55;1.43;;;0.60;;
74995;SDS011;63545;51.690;5.202;2024-03-29T13:46:21;1.67;;;0.70;;
74995;SDS011;63545;51.690;5.202;2024-03-29T13:48:46;1.03;;;0.80;;
74995;SDS011;63545;51.690;5.202;2024-03-29T13:51:12;2.10;;;0.70;;
74995;SDS011;63545;51.690;5.202;2024-03-29T13:53:37;2.00;;;0.70;;
74995;SDS011;63545;51.690;5.202;2024-03-29T13:56:04;1.48;;;1.00;;
74995;SDS011;63545;51.690;5.202;2024-03-29T13:58:31;1.73;;;0.90;;
74995;SDS011;63545;51.690;5.202;2024-03-29T14:00:56;2.80;;;0.97;;
74995;SDS011;63545;51.690;5.202;2024-03-29T14:03:25;2.27;;;0.87;;
74995;SDS011;63545;51.690;5.202;2024-03-29T14:05:51;3.28;;;0.82;;
74995;SDS011;63545;51.690;5.202;2024-03-29T14:08:16;1.10;;;0.73;;
74995;SDS011;63545;51.690;5.202;2024-03-29T14:10:41;2.50;;;1.00;;
74995;SDS011;63545;51.690;5.202;2024-03-29T14:13:07;2.10;;;1.03;;
74995;SDS011;63545;51.690;5.202;2024-03-29T14:15:34;1.48;;;0.85;;
74995;SDS011;63545;51.690;5.202;2024-03-29T14:17:59;2.95;;;0.88;;
74995;SDS011;63545;51.690;5.202;2024-03-29T14:20:24;1.83;;;1.00;;
74995;SDS011;63545;51.690;5.202;2024-03-29T14:22:50;2.03;;;0.87;;
74995;SDS011;63545;51.690;5.202;2024-03-29T14:25:19;1.98;;;1.00;;
74995;SDS011;63545;51.690;5.202;2024-03-29T14:27:45;2.43;;;0.80;;
74995;SDS011;63545;51.690;5.202;2024-03-29T14:30:19;1.70;;;1.00;;
74995;SDS011;63545;51.690;5.202;2024-03-29T14:32:49;1.90;;;0.98;;
74995;SDS011;63545;51.690;5.202;2024-03-29T14:35:16;1.50;;;0.82;;
74995;SDS011;63545;51.690;5.202;2024-03-29T14:37:42;0.87;;;0.70;;
74995;SDS011;63545;51.690;5.202;2024-03-29T14:40:10;1.20;;;0.60;;
74995;SDS011;63545;51.690;5.202;2024-03-29T14:42:37;1.42;;;0.73;;
74995;SDS011;63545;51.690;5.202;2024-03-29T14:45:05;1.50;;;0.80;;
74995;SDS011;63545;51.690;5.202;2024-03-29T14:47:32;1.17;;;0.80;;